Latest Coastal Weather Observations for Gladstone

IDQ60701

Issued at 12:32 am EST Thursday 11 August 2022 (issued every 10 minutes, with the page automatically refreshed every 10 minutes)

About coastal observations | Map of coastal stations | Coastal observations for QLD | Marine services | Other Formats
Station Details ID: 039123 Name: GLADSTONE RADAR Lat: -23.86 Lon: 151.26 Height: 74.5 m
Data from the previous 72 hours. | See also: Recent months at Gladstone
Date/Time
EST
Wind Sea
Height
m
Swell Vis
km
Cloud Weather Temp
°C
Press
MSL
hPa
Rain since
9am
mm
Dir  Spd
kts
Gust
kts
Height
m
Period
s
Dir
11/12:30am SE 10 14 - - - - - - - 14.7 1022.8 0.0
11/12:00am SE 9 14 - - - - - - - 14.7 1022.8 0.0
 
Date/Time
EST
Wind Sea
Height
m
Swell Vis
km
Cloud Weather Temp
°C
Press
MSL
hPa
Rain since
9am
mm
Dir  Spd
kts
Gust
kts
Height
m
Period
s
Dir
10/11:30pm SSE 9 14 - - - - - - - 14.8 1023.1 0.0
10/11:00pm SE 9 12 - - - - - - - 14.8 1023.3 0.0
10/10:30pm SE 9 13 - - - - - - - 15.1 1023.4 0.0
10/10:00pm SE 11 14 - - - - - - - 15.5 1023.4 0.0
10/09:30pm SE 10 13 - - - - - - - 15.7 1023.8 0.0
10/09:00pm SE 9 14 - - - - - - - 16.0 1023.8 0.0
10/08:30pm SE 10 15 - - - - - - - 16.5 1023.8 0.0
10/08:00pm ESE 11 17 - - - - - - - 17.1 1023.7 0.0
10/07:30pm ESE 13 20 - - - - - - - 17.3 1023.2 0.0
10/07:00pm ESE 12 18 - - - - - - - 17.4 1022.7 0.0
10/06:30pm E 14 20 - - - - - - - 17.4 1022.5 0.0
10/06:00pm E 12 17 - - - - - - - 17.3 1022.1 0.0
10/05:30pm E 12 18 - - - - - - - 17.6 1021.6 0.0
10/05:00pm ENE 13 17 - - - - - - - 18.2 1021.4 0.0
10/04:30pm ENE 11 19 - - - - - - - 19.0 1021.1 0.0
10/04:00pm ENE 11 16 - - - - - - - 19.6 1020.9 0.0
10/03:30pm ENE 10 16 - - - - - - - 20.3 1020.9 0.0
10/03:00pm ENE 11 16 - - - - - - - 20.7 1021.1 0.0
10/02:30pm ENE 10 14 - - - - - - - 21.7 1021.3 0.0
10/02:00pm E 11 14 - - - - - - - 21.5 1021.5 0.0
10/01:30pm ENE 10 16 - - - - - - - 22.1 1021.8 0.0
10/01:00pm E 9 15 - - - - - - - 22.0 1022.0 0.0
10/12:30pm ESE 10 15 - - - - - - - 21.2 1022.3 0.0
10/12:00pm ESE 10 15 - - - - - - - 21.0 1022.8 0.0
10/11:30am ESE 10 16 - - - - - - - 20.8 1023.2 0.0
10/11:00am SE 8 14 - - - - - - - 21.2 1023.4 0.0
10/10:30am SE 10 14 - - - - - - - 19.8 1023.7 0.0
10/10:00am SE 9 14 - - - - - - - 19.2 1023.8 0.0
10/09:30am SE 10 16 - - - - - - - 17.9 1023.9 0.0
10/09:00am SE 8 13 - - - - - - - 17.4 1024.0 0.0
10/08:30am SSE 7 11 - - - - - - - 16.6 1023.8 0.0
10/08:00am S 6 10 - - - - - - - 15.4 1023.4 0.0
10/07:30am S 8 11 - - - - - - - 14.2 1023.0 0.0
10/07:00am S 8 11 - - - - - - - 13.8 1022.7 0.0
10/06:30am S 9 11 - - - - - - - 13.8 1022.1 0.0
10/06:00am S 9 11 - - - - - - - 14.2 1021.6 0.0
10/05:30am S 10 13 - - - - - - - 14.0 1021.2 0.0
10/05:00am S 9 12 - - - - - - - 13.9 1020.9 0.0
10/04:30am SSW 8 11 - - - - - - - 13.8 1020.8 0.0
10/04:00am S 9 11 - - - - - - - 14.1 1020.5 0.0
10/03:30am S 9 12 - - - - - - - 14.2 1020.5 0.0
10/03:00am S 9 11 - - - - - - - 14.5 1020.5 0.0
10/02:30am SSW 8 10 - - - - - - - 14.7 1020.5 0.0
10/02:00am S 9 11 - - - - - - - 15.4 1020.7 0.0
10/01:30am S 8 10 - - - - - - - 15.5 1020.9 0.0
10/01:00am SSW 5 7 - - - - - - - 15.7 1021.0 0.0
10/12:30am SW 7 10 - - - - - - - 15.1 1021.0 0.0
10/12:00am SSW 5 7 - - - - - - - 14.3 1021.0 0.0
 
Date/Time
EST
Wind Sea
Height
m
Swell Vis
km
Cloud Weather Temp
°C
Press
MSL
hPa
Rain since
9am
mm
Dir  Spd
kts
Gust
kts
Height
m
Period
s
Dir
09/11:30pm SSW 5 6 - - - - - - - 14.9 1021.1 0.0
09/11:00pm SSW 5 7 - - - - - - - 15.4 1021.1 0.0
09/10:30pm SE 4 6 - - - - - - - 15.4 1021.1 0.0
09/10:00pm E 3 4 - - - - - - - 15.8 1021.1 0.0
09/09:30pm E 1 3 - - - - - - - 15.2 1020.9 0.0
09/09:00pm E 4 4 - - - - - - - 15.5 1021.0 0.0
09/08:30pm E 5 5 - - - - - - - 15.7 1020.9 0.0
09/08:00pm E 4 5 - - - - - - - 15.8 1020.6 0.0
09/07:30pm E 5 6 - - - - - - - 16.5 1020.2 0.0
09/07:00pm E 6 7 - - - - - - - 16.6 1019.6 0.0
09/06:30pm ENE 6 7 - - - - - - - 16.8 1019.2 0.0
09/06:00pm ENE 6 8 - - - - - - - 16.8 1018.9 0.0
09/05:30pm NE 4 6 - - - - - - - 17.3 1018.5 0.0
09/05:00pm NE 5 7 - - - - - - - 18.5 1018.1 0.0
09/04:30pm NE 5 7 - - - - - - - 20.7 1017.9 0.0
09/04:00pm NNE 6 9 - - - - - - - 21.1 1017.7 0.0
09/03:30pm NE 7 9 - - - - - - - 21.4 1017.5 0.0
09/03:00pm NE 7 10 - - - - - - - 21.8 1017.5 0.0
09/02:30pm NE 5 8 - - - - - - - 22.4 1017.7 0.0
09/02:00pm NE 7 10 - - - - - - - 22.3 1017.8 0.0
09/01:30pm ENE 7 10 - - - - - - - 22.1 1018.3 0.0
09/01:00pm E 4 8 - - - - - - - 22.1 1018.8 0.0
09/12:30pm S 4 8 - - - - - - - 21.4 1019.4 0.0
09/12:00pm SSW 4 7 - - - - - - - 21.1 1019.9 0.0
09/11:30am SE 7 11 - - - - - - - 20.9 1020.4 0.0
09/11:00am SE 5 11 - - - - - - - 20.0 1020.9 0.0
09/10:30am SSW 6 11 - - - - - - - 18.6 1021.3 0.0
09/10:00am SW 6 10 - - - - - - - 17.8 1021.6 0.0
09/09:30am SSW 6 10 - - - - - - - 16.6 1021.7 0.0
09/09:00am SSW 6 10 - - - - - - - 15.7 1021.6 0.0
09/08:30am SW 7 10 - - - - - - - 14.8 1021.5 0.0
09/08:00am SSW 7 10 - - - - - - - 13.9 1021.2 0.0
09/07:30am SSW 9 14 - - - - - - - 13.2 1020.9 0.0
09/07:00am SW 9 13 - - - - - - - 12.7 1020.6 0.0
09/06:30am SSW 9 12 - - - - - - - 12.2 1020.3 0.0
09/06:00am SW 9 12 - - - - - - - 12.3 1020.0 0.0
09/05:30am SW 8 13 - - - - - - - 12.6 1019.8 0.0
09/05:00am SSW 8 13 - - - - - - - 12.5 1019.3 0.0
09/04:30am SSW 8 12 - - - - - - - 12.6 1019.2 0.0
09/04:00am SSW 7 11 - - - - - - - 12.9 1019.2 0.0
09/03:30am SSW 5 6 - - - - - - - 13.1 1019.2 0.0
09/03:00am S 7 9 - - - - - - - 14.0 1019.2 0.0
09/02:30am S 7 9 - - - - - - - 13.8 1019.1 0.0
09/02:00am SSW 7 9 - - - - - - - 13.7 1019.4 0.0
09/01:30am SSW 8 9 - - - - - - - 14.0 1019.8 0.0
09/01:00am SSE 5 7 - - - - - - - 13.5 1019.9 0.0
09/12:30am SSE 6 7 - - - - - - - 13.3 1019.8 0.0
09/12:00am S 6 11 - - - - - - - 13.6 1019.8 0.0
 
Date/Time
EST
Wind Sea
Height
m
Swell Vis
km
Cloud Weather Temp
°C
Press
MSL
hPa
Rain since
9am
mm
Dir  Spd
kts
Gust
kts
Height
m
Period
s
Dir
08/11:30pm SW 7 11 - - - - - - - 14.5 1019.6 0.0
08/11:00pm SW 6 9 - - - - - - - 14.7 1019.7 0.0
08/10:30pm SW 6 8 - - - - - - - 15.4 1019.6 0.0
08/10:00pm SW 6 8 - - - - - - - 16.5 1019.8 0.0
08/09:30pm SSW 8 11 - - - - - - - 16.9 1019.8 0.0
08/09:00pm SSW 8 11 - - - - - - - 16.9 1019.6 0.0
08/08:30pm SSW 8 11 - - - - - - - 16.9 1019.4 0.0
08/08:00pm S 8 10 - - - - - - - 17.0 1019.2 0.0
08/07:30pm S 9 12 - - - - - - - 17.5 1019.0 0.0
08/07:00pm S 8 10 - - - - - - - 17.5 1018.7 0.0
08/06:30pm SSE 7 9 - - - - - - - 17.6 1018.2 0.0
08/06:00pm S 7 9 - - - - - - - 17.9 1018.0 0.0
08/05:30pm SSE 7 10 - - - - - - - 18.3 1017.9 0.0
08/05:00pm S 7 10 - - - - - - - 18.9 1017.6 0.0
08/04:30pm SSE 6 11 - - - - - - - 19.7 1017.3 0.0
08/04:00pm S 6 11 - - - - - - - 20.4 1017.1 0.0
08/03:30pm WSW 5 11 - - - - - - - 20.9 1017.0 0.0
08/03:00pm SSW 7 14 - - - - - - - 20.6 1017.0 0.0
08/02:30pm S 5 14 - - - - - - - 21.2 1017.0 0.0
08/02:00pm SSE 6 12 - - - - - - - 20.6 1017.2 0.0
08/01:30pm SSW 7 13 - - - - - - - 21.1 1017.4 0.0
08/01:00pm S 7 14 - - - - - - - 20.5 1017.7 0.0
08/12:30pm WSW 4 11 - - - - - - - 20.9 1018.3 0.0
08/12:00pm SW 6 13 - - - - - - - 20.0 1019.0 0.0
08/11:30am S 7 15 - - - - - - - 19.4 1019.5 0.0
08/11:00am S 10 18 - - - - - - - 18.6 1020.2 0.0
08/10:30am S 10 19 - - - - - - - 18.5 1020.5 0.0
08/10:00am SSW 8 16 - - - - - - - 17.7 1020.5 0.0
08/09:30am SSW 7 12 - - - - - - - 16.8 1020.7 0.0
08/09:00am SSW 5 9 - - - - - - - 15.9 1020.6 0.0
08/08:30am SSW 5 11 - - - - - - - 14.8 1020.4 0.0
08/08:00am SW 6 11 - - - - - - - 13.6 1020.2 0.0
08/07:30am SW 7 12 - - - - - - - 13.2 1020.0 0.0
08/07:00am SW 8 11 - - - - - - - 12.8 1019.6 0.0
08/06:30am SW 8 11 - - - - - - - 13.1 1019.2 0.0
08/06:00am SW 8 11 - - - - - - - 13.1 1018.7 0.0
08/05:30am SW 7 9 - - - - - - - 13.4 1018.2 0.0
08/05:00am SSW 7 9 - - - - - - - 13.6 1018.0 0.0
08/04:30am SSW 6 8 - - - - - - - 13.7 1017.8 0.0
08/04:00am SSW 6 8 - - - - - - - 13.9 1017.6 0.0
08/03:30am SSW 7 9 - - - - - - - 13.8 1017.6 0.0
08/03:00am SSW 7 9 - - - - - - - 14.1 1017.5 0.0
08/02:30am SW 6 8 - - - - - - - 13.4 1017.5 0.0
08/02:00am SSW 5 7 - - - - - - - 13.6 1017.6 0.0
08/01:30am SSE 5 6 - - - - - - - 14.5 1017.7 0.0
08/01:00am SSE 5 6 - - - - - - - 15.4 1017.9 0.0

Other formats

Comma delimited format used in spreadsheet applications
http://www.bom.gov.au/fwo/IDQ60701/IDQ60701.94380.axf

JavaScript Object Notation format (JSON) in row-major order
http://www.bom.gov.au/fwo/IDQ60701/IDQ60701.94380.json

Data quality

Most of these data are generated automatically and are frequently updated. Quality checks on data are not normally performed. It is possible for incorrect values to appear. Refer to information at About Latest Weather Observations and please check the disclaimer before using these data.